Portada
METAR-TAF:

METAR-TAF

Aeroports :

Làrnaca, Xipre

latitud: 34-53N, longitud: 033-38E, altitud: 2 m

Observació

L'informe es va fer fa 24 minuts, a les 08:30 UTC
Vent 8 kt del Est/Nord-Est
Temperatura 21°C
Humitat 53%
Pressió 1021 hPa
Visibilitat 10 km o més
Escasses núvols a una alçada de 2000 ft

METAR: LCLK 180830Z 06008KT 9999 FEW020 21/11 Q1021 NOSIG

Hora: 10:54 (08:54 UTC)

Pronòstic

L'informe es va fer fa 3 hores i 24 minuts, a les 05:30 UTC
Pronòstic vàlid del 18 a les 06 UTC al 19 a les 06 UTC
Vent 7 kt del Nord/Nord-Oest
Visibilitat 10 km o més
Escasses núvols a una alçada de 2500 ft
Evolucionant progressivament
l' 18 a les 07 UTC al 18 a les 10 UTC
Vent 12 kt del Est/Nord-Est
Evolucionant progressivament
l' 18 a les 17 UTC al 18 a les 20 UTC
Vent 7 kt del Nord

TAF: LCLK 180530Z 1806/1906 33007KT 9999 FEW025 BECMG 1807/1810 06012KT BECMG 1817/1820 35007KT

Observacions i pronòstics meteorològics de més de 4000 aeroports (METAR i TAF).

Les estacions disponibles són els punts grocs i vermells al mapa.

Posi el ratolí al punt desitjat per veure el nom de l'estació.

Feu clic per veure les observacions i els pronòstics meteorològics.

Per canviar el mapa: feu clic els botons verds amb una creu de color negre per apropar; al botó verd amb un guió per allunyar la imatge; o en les fletxes verdes per a mapes adjacents.


METAR-TAF: